sensor_id;sensor_type;location;lat;lon;timestamp;P1;P2;P0
49343;PMS5003;35210;41.606;-87.602;2022-07-04T00:01:56;9.60;7.20;4.60
49343;PMS5003;35210;41.606;-87.602;2022-07-04T00:04:25;7.60;7.60;5.60
49343;PMS5003;35210;41.606;-87.602;2022-07-04T00:06:53;11.40;11.00;8.00
49343;PMS5003;35210;41.606;-87.602;2022-07-04T00:09:23;9.60;9.60;5.60
49343;PMS5003;35210;41.606;-87.602;2022-07-04T00:11:51;6.40;6.00;4.00
49343;PMS5003;35210;41.606;-87.602;2022-07-04T00:14:19;12.00;9.40;6.20
49343;PMS5003;35210;41.606;-87.602;2022-07-04T00:16:47;12.60;11.00;8.00
49343;PMS5003;35210;41.606;-87.602;2022-07-04T00:19:15;11.00;10.60;6.80
49343;PMS5003;35210;41.606;-87.602;2022-07-04T00:21:43;10.60;10.20;5.60
49343;PMS5003;35210;41.606;-87.602;2022-07-04T00:24:12;9.80;9.80;7.60
49343;PMS5003;35210;41.606;-87.602;2022-07-04T00:26:42;10.00;10.00;8.00
49343;PMS5003;35210;41.606;-87.602;2022-07-04T00:29:10;9.60;9.20;6.20
49343;PMS5003;35210;41.606;-87.602;2022-07-04T00:31:38;11.60;11.60;8.60
49343;PMS5003;35210;41.606;-87.602;2022-07-04T00:34:06;9.00;8.00;6.00
49343;PMS5003;35210;41.606;-87.602;2022-07-04T00:36:34;10.20;10.00;7.00
49343;PMS5003;35210;41.606;-87.602;2022-07-04T00:39:03;13.60;11.80;8.20
49343;PMS5003;35210;41.606;-87.602;2022-07-04T00:41:31;9.20;9.20;6.20
49343;PMS5003;35210;41.606;-87.602;2022-07-04T00:44:01;10.20;10.20;8.00
49343;PMS5003;35210;41.606;-87.602;2022-07-04T00:46:30;15.00;13.00;9.00
49343;PMS5003;35210;41.606;-87.602;2022-07-04T00:48:59;11.20;11.20;8.20
49343;PMS5003;35210;41.606;-87.602;2022-07-04T00:51:27;12.60;11.60;7.60
49343;PMS5003;35210;41.606;-87.602;2022-07-04T00:53:56;13.00;11.00;8.00
49343;PMS5003;35210;41.606;-87.602;2022-07-04T00:56:24;10.60;10.60;7.80
49343;PMS5003;35210;41.606;-87.602;2022-07-04T00:58:53;15.20;13.20;8.80
49343;PMS5003;35210;41.606;-87.602;2022-07-04T01:01:23;18.80;15.80;9.00
49343;PMS5003;35210;41.606;-87.602;2022-07-04T01:03:51;12.60;10.60;8.00
49343;PMS5003;35210;41.606;-87.602;2022-07-04T01:06:20;15.00;14.00;9.00
49343;PMS5003;35210;41.606;-87.602;2022-07-04T01:08:48;15.40;12.00;9.00
49343;PMS5003;35210;41.606;-87.602;2022-07-04T01:11:17;13.40;11.40;7.00
49343;PMS5003;35210;41.606;-87.602;2022-07-04T01:13:46;16.00;15.60;10.60
49343;PMS5003;35210;41.606;-87.602;2022-07-04T01:16:14;14.00;14.00;10.80
49343;PMS5003;35210;41.606;-87.602;2022-07-04T01:18:45;15.20;14.60;9.20
49343;PMS5003;35210;41.606;-87.602;2022-07-04T01:21:17;15.40;14.20;10.00
49343;PMS5003;35210;41.606;-87.602;2022-07-04T01:23:47;16.20;14.60;10.80
49343;PMS5003;35210;41.606;-87.602;2022-07-04T01:26:15;18.80;15.60;10.60
49343;PMS5003;35210;41.606;-87.602;2022-07-04T01:28:44;17.40;14.80;10.40
49343;PMS5003;35210;41.606;-87.602;2022-07-04T01:31:12;20.00;17.80;10.00
49343;PMS5003;35210;41.606;-87.602;2022-07-04T01:33:41;14.60;13.60;8.60
49343;PMS5003;35210;41.606;-87.602;2022-07-04T01:36:10;16.00;13.40;7.60
49343;PMS5003;35210;41.606;-87.602;2022-07-04T01:38:40;21.60;18.80;12.00
49343;PMS5003;35210;41.606;-87.602;2022-07-04T01:41:07;17.60;15.80;11.20
49343;PMS5003;35210;41.606;-87.602;2022-07-04T01:43:35;15.40;15.40;10.20
49343;PMS5003;35210;41.606;-87.602;2022-07-04T01:46:03;18.60;16.60;10.80
49343;PMS5003;35210;41.606;-87.602;2022-07-04T01:48:31;4.60;2.60;0.00
49343;PMS5003;35210;41.606;-87.602;2022-07-04T01:51:00;19.80;18.40;12.00
49343;PMS5003;35210;41.606;-87.602;2022-07-04T01:53:27;11.80;11.60;9.20
49343;PMS5003;35210;41.606;-87.602;2022-07-04T01:55:57;18.60;17.60;11.80
49343;PMS5003;35210;41.606;-87.602;2022-07-04T01:58:26;23.60;22.20;15.00
49343;PMS5003;35210;41.606;-87.602;2022-07-04T02:00:54;20.00;17.80;12.80
49343;PMS5003;35210;41.606;-87.602;2022-07-04T02:03:39;24.40;21.00;13.00
49343;PMS5003;35210;41.606;-87.602;2022-07-04T02:06:07;22.20;20.40;14.00
49343;PMS5003;35210;41.606;-87.602;2022-07-04T02:08:35;21.60;21.20;14.00
49343;PMS5003;35210;41.606;-87.602;2022-07-04T02:11:22;20.40;19.20;13.00
49343;PMS5003;35210;41.606;-87.602;2022-07-04T02:13:50;22.20;20.40;13.60
49343;PMS5003;35210;41.606;-87.602;2022-07-04T02:16:17;19.80;18.60;12.20
49343;PMS5003;35210;41.606;-87.602;2022-07-04T02:18:45;25.20;22.80;15.80
49343;PMS5003;35210;41.606;-87.602;2022-07-04T02:21:13;23.80;18.40;13.80
49343;PMS5003;35210;41.606;-87.602;2022-07-04T02:23:41;20.20;19.00;13.00
49343;PMS5003;35210;41.606;-87.602;2022-07-04T02:26:09;25.40;24.00;15.60
49343;PMS5003;35210;41.606;-87.602;2022-07-04T02:28:39;24.00;21.40;14.00
49343;PMS5003;35210;41.606;-87.602;2022-07-04T02:31:06;28.50;27.00;19.50
49343;PMS5003;35210;41.606;-87.602;2022-07-04T02:33:35;29.50;28.50;18.75
49343;PMS5003;35210;41.606;-87.602;2022-07-04T02:36:04;28.50;26.75;20.00
49343;PMS5003;35210;41.606;-87.602;2022-07-04T02:38:33;31.00;27.00;21.75
49343;PMS5003;35210;41.606;-87.602;2022-07-04T02:41:01;32.25;29.75;22.00
49343;PMS5003;35210;41.606;-87.602;2022-07-04T02:43:29;38.75;33.75;22.75
49343;PMS5003;35210;41.606;-87.602;2022-07-04T02:45:59;34.25;31.00;20.50
49343;PMS5003;35210;41.606;-87.602;2022-07-04T02:48:27;35.00;32.50;22.50
49343;PMS5003;35210;41.606;-87.602;2022-07-04T02:50:55;39.75;32.75;22.25
49343;PMS5003;35210;41.606;-87.602;2022-07-04T02:53:23;44.25;36.00;23.25
49343;PMS5003;35210;41.606;-87.602;2022-07-04T02:55:52;42.00;32.50;23.00
49343;PMS5003;35210;41.606;-87.602;2022-07-04T02:58:20;44.50;34.50;23.50
49343;PMS5003;35210;41.606;-87.602;2022-07-04T03:00:48;43.50;34.25;23.50
49343;PMS5003;35210;41.606;-87.602;2022-07-04T03:03:19;44.25;35.75;24.25
49343;PMS5003;35210;41.606;-87.602;2022-07-04T03:05:47;43.25;36.25;25.50
49343;PMS5003;35210;41.606;-87.602;2022-07-04T03:08:15;45.00;36.25;24.75
49343;PMS5003;35210;41.606;-87.602;2022-07-04T03:10:43;48.75;39.25;26.50
49343;PMS5003;35210;41.606;-87.602;2022-07-04T03:13:11;50.50;42.25;28.75
49343;PMS5003;35210;41.606;-87.602;2022-07-04T03:15:40;53.25;43.50;29.00
49343;PMS5003;35210;41.606;-87.602;2022-07-04T03:18:08;46.50;37.75;26.25
49343;PMS5003;35210;41.606;-87.602;2022-07-04T03:20:37;53.50;44.00;28.50
49343;PMS5003;35210;41.606;-87.602;2022-07-04T03:23:06;47.00;39.50;26.00
49343;PMS5003;35210;41.606;-87.602;2022-07-04T03:25:34;46.50;36.25;25.75
49343;PMS5003;35210;41.606;-87.602;2022-07-04T03:28:02;50.75;39.75;26.75
49343;PMS5003;35210;41.606;-87.602;2022-07-04T03:30:31;44.00;35.25;25.00
49343;PMS5003;35210;41.606;-87.602;2022-07-04T03:32:59;38.75;33.50;24.50
49343;PMS5003;35210;41.606;-87.602;2022-07-04T03:35:27;44.75;37.00;26.00
49343;PMS5003;35210;41.606;-87.602;2022-07-04T03:37:56;33.50;31.75;19.75
49343;PMS5003;35210;41.606;-87.602;2022-07-04T03:40:25;44.00;38.75;25.50
49343;PMS5003;35210;41.606;-87.602;2022-07-04T03:42:56;41.75;33.00;22.00
49343;PMS5003;35210;41.606;-87.602;2022-07-04T03:45:25;46.50;38.25;24.00
49343;PMS5003;35210;41.606;-87.602;2022-07-04T03:47:53;45.00;36.75;26.00
49343;PMS5003;35210;41.606;-87.602;2022-07-04T03:50:21;54.00;42.25;28.25
49343;PMS5003;35210;41.606;-87.602;2022-07-04T03:52:50;50.50;40.00;26.75
49343;PMS5003;35210;41.606;-87.602;2022-07-04T03:55:20;46.00;38.50;24.50
49343;PMS5003;35210;41.606;-87.602;2022-07-04T03:57:49;48.00;39.00;26.50
49343;PMS5003;35210;41.606;-87.602;2022-07-04T04:00:17;45.00;38.50;25.50
49343;PMS5003;35210;41.606;-87.602;2022-07-04T04:02:46;46.50;38.00;27.00
49343;PMS5003;35210;41.606;-87.602;2022-07-04T04:05:14;48.25;40.50;28.00
49343;PMS5003;35210;41.606;-87.602;2022-07-04T04:07:54;54.75;43.25;28.00
49343;PMS5003;35210;41.606;-87.602;2022-07-04T04:10:24;54.25;43.75;28.75
49343;PMS5003;35210;41.606;-87.602;2022-07-04T04:12:53;57.25;46.75;30.50
49343;PMS5003;35210;41.606;-87.602;2022-07-04T04:15:21;50.75;41.75;27.75
49343;PMS5003;35210;41.606;-87.602;2022-07-04T04:17:50;53.00;43.50;29.00
49343;PMS5003;35210;41.606;-87.602;2022-07-04T04:20:18;55.75;44.00;31.75
49343;PMS5003;35210;41.606;-87.602;2022-07-04T04:22:47;61.00;49.25;34.00
49343;PMS5003;35210;41.606;-87.602;2022-07-04T04:25:16;68.60;55.60;36.40
49343;PMS5003;35210;41.606;-87.602;2022-07-04T04:27:47;66.20;52.20;35.00
49343;PMS5003;35210;41.606;-87.602;2022-07-04T04:30:14;62.20;48.60;33.60
49343;PMS5003;35210;41.606;-87.602;2022-07-04T04:32:43;76.40;61.60;40.80
49343;PMS5003;35210;41.606;-87.602;2022-07-04T04:35:11;72.40;59.20;45.40
49343;PMS5003;35210;41.606;-87.602;2022-07-04T04:37:39;73.80;59.80;40.60
49343;PMS5003;35210;41.606;-87.602;2022-07-04T04:40:07;77.60;64.00;41.80
49343;PMS5003;35210;41.606;-87.602;2022-07-04T04:42:36;79.80;73.40;50.20
49343;PMS5003;35210;41.606;-87.602;2022-07-04T04:45:06;79.00;69.80;44.80
49343;PMS5003;35210;41.606;-87.602;2022-07-04T04:47:35;84.20;77.40;53.60
49343;PMS5003;35210;41.606;-87.602;2022-07-04T04:50:03;83.40;75.20;53.20
49343;PMS5003;35210;41.606;-87.602;2022-07-04T04:52:31;84.60;77.40;54.20
49343;PMS5003;35210;41.606;-87.602;2022-07-04T04:54:59;84.40;75.00;48.60
49343;PMS5003;35210;41.606;-87.602;2022-07-04T04:57:27;82.20;74.80;49.00
49343;PMS5003;35210;41.606;-87.602;2022-07-04T04:59:55;81.60;78.20;52.20
49343;PMS5003;35210;41.606;-87.602;2022-07-04T05:02:25;86.80;78.40;55.00
49343;PMS5003;35210;41.606;-87.602;2022-07-04T05:04:53;85.00;78.40;53.20
49343;PMS5003;35210;41.606;-87.602;2022-07-04T05:07:21;78.20;70.80;46.60
49343;PMS5003;35210;41.606;-87.602;2022-07-04T05:09:49;83.40;79.00;52.00
49343;PMS5003;35210;41.606;-87.602;2022-07-04T05:12:23;78.00;67.60;42.60
49343;PMS5003;35210;41.606;-87.602;2022-07-04T05:14:52;77.60;69.40;46.60
49343;PMS5003;35210;41.606;-87.602;2022-07-04T05:17:20;78.60;72.00;52.20
49343;PMS5003;35210;41.606;-87.602;2022-07-04T05:19:50;81.20;76.00;52.40
49343;PMS5003;35210;41.606;-87.602;2022-07-04T05:22:21;79.80;75.40;49.40
49343;PMS5003;35210;41.606;-87.602;2022-07-04T05:24:49;79.00;74.20;50.20
49343;PMS5003;35210;41.606;-87.602;2022-07-04T05:27:17;79.20;74.60;49.00
49343;PMS5003;35210;41.606;-87.602;2022-07-04T05:29:46;79.40;72.20;48.80
49343;PMS5003;35210;41.606;-87.602;2022-07-04T05:32:14;86.20;77.00;52.80
49343;PMS5003;35210;41.606;-87.602;2022-07-04T05:34:42;72.80;64.00;46.80
49343;PMS5003;35210;41.606;-87.602;2022-07-04T05:37:12;79.60;68.80;45.00
49343;PMS5003;35210;41.606;-87.602;2022-07-04T05:39:40;83.60;74.80;47.60
49343;PMS5003;35210;41.606;-87.602;2022-07-04T05:42:08;79.40;69.00;45.20
49343;PMS5003;35210;41.606;-87.602;2022-07-04T05:44:37;83.00;73.40;48.80
49343;PMS5003;35210;41.606;-87.602;2022-07-04T05:47:05;82.20;70.80;47.60
49343;PMS5003;35210;41.606;-87.602;2022-07-04T05:49:33;76.40;66.20;43.00
49343;PMS5003;35210;41.606;-87.602;2022-07-04T05:52:02;75.20;66.00;44.20
49343;PMS5003;35210;41.606;-87.602;2022-07-04T05:54:31;79.20;69.20;41.60
49343;PMS5003;35210;41.606;-87.602;2022-07-04T05:57:00;74.60;62.80;41.60
49343;PMS5003;35210;41.606;-87.602;2022-07-04T05:59:28;75.20;65.20;43.40
49343;PMS5003;35210;41.606;-87.602;2022-07-04T06:01:56;76.40;67.00;44.40
49343;PMS5003;35210;41.606;-87.602;2022-07-04T06:04:24;73.20;60.00;42.20
49343;PMS5003;35210;41.606;-87.602;2022-07-04T06:06:52;75.40;63.60;39.40
49343;PMS5003;35210;41.606;-87.602;2022-07-04T06:09:20;71.60;58.20;39.40
49343;PMS5003;35210;41.606;-87.602;2022-07-04T06:11:49;70.20;60.00;40.00
49343;PMS5003;35210;41.606;-87.602;2022-07-04T06:14:17;65.80;52.40;37.60
49343;PMS5003;35210;41.606;-87.602;2022-07-04T06:16:45;76.80;64.40;40.40
49343;PMS5003;35210;41.606;-87.602;2022-07-04T06:19:13;73.40;60.80;39.60
49343;PMS5003;35210;41.606;-87.602;2022-07-04T06:21:41;77.00;65.00;42.80
49343;PMS5003;35210;41.606;-87.602;2022-07-04T06:24:10;63.00;51.80;34.20
49343;PMS5003;35210;41.606;-87.602;2022-07-04T06:26:38;70.00;56.20;37.60
49343;PMS5003;35210;41.606;-87.602;2022-07-04T06:29:08;70.25;56.25;34.75
49343;PMS5003;35210;41.606;-87.602;2022-07-04T06:31:36;68.80;56.40;35.20
49343;PMS5003;35210;41.606;-87.602;2022-07-04T06:34:06;67.50;53.75;35.50
49343;PMS5003;35210;41.606;-87.602;2022-07-04T06:36:51;70.75;56.75;37.25
49343;PMS5003;35210;41.606;-87.602;2022-07-04T06:39:19;59.25;47.25;28.75
49343;PMS5003;35210;41.606;-87.602;2022-07-04T06:41:48;65.25;51.50;34.50
49343;PMS5003;35210;41.606;-87.602;2022-07-04T06:44:17;64.25;50.75;33.00
49343;PMS5003;35210;41.606;-87.602;2022-07-04T06:46:46;67.25;51.50;34.00
49343;PMS5003;35210;41.606;-87.602;2022-07-04T06:49:16;57.25;47.50;32.50
49343;PMS5003;35210;41.606;-87.602;2022-07-04T06:51:44;58.75;47.75;30.50
49343;PMS5003;35210;41.606;-87.602;2022-07-04T06:54:12;54.75;44.25;30.50
49343;PMS5003;35210;41.606;-87.602;2022-07-04T06:56:41;53.75;44.00;28.25
49343;PMS5003;35210;41.606;-87.602;2022-07-04T06:59:09;56.75;47.00;31.00
49343;PMS5003;35210;41.606;-87.602;2022-07-04T07:01:38;53.00;43.75;29.75
49343;PMS5003;35210;41.606;-87.602;2022-07-04T07:04:07;54.00;43.75;28.75
49343;PMS5003;35210;41.606;-87.602;2022-07-04T07:06:35;53.50;43.00;28.00
49343;PMS5003;35210;41.606;-87.602;2022-07-04T07:09:03;54.50;44.00;30.25
49343;PMS5003;35210;41.606;-87.602;2022-07-04T07:11:30;49.00;40.25;28.00
49343;PMS5003;35210;41.606;-87.602;2022-07-04T07:13:59;51.75;43.25;28.25
49343;PMS5003;35210;41.606;-87.602;2022-07-04T07:16:27;54.00;43.75;28.50
49343;PMS5003;35210;41.606;-87.602;2022-07-04T07:18:57;49.50;40.00;27.00
49343;PMS5003;35210;41.606;-87.602;2022-07-04T07:21:25;48.25;41.25;27.00
49343;PMS5003;35210;41.606;-87.602;2022-07-04T07:23:53;48.50;40.25;28.25
49343;PMS5003;35210;41.606;-87.602;2022-07-04T07:26:21;52.50;40.50;27.25
49343;PMS5003;35210;41.606;-87.602;2022-07-04T07:28:50;47.50;40.50;27.00
49343;PMS5003;35210;41.606;-87.602;2022-07-04T07:31:18;47.75;38.50;24.25
49343;PMS5003;35210;41.606;-87.602;2022-07-04T07:33:46;45.25;38.50;26.25
49343;PMS5003;35210;41.606;-87.602;2022-07-04T07:36:15;45.50;38.50;25.75
49343;PMS5003;35210;41.606;-87.602;2022-07-04T07:38:44;49.00;38.50;24.00
49343;PMS5003;35210;41.606;-87.602;2022-07-04T07:41:12;52.50;41.50;27.00
49343;PMS5003;35210;41.606;-87.602;2022-07-04T07:43:41;47.75;40.25;27.50
49343;PMS5003;35210;41.606;-87.602;2022-07-04T07:46:09;48.75;39.25;26.00
49343;PMS5003;35210;41.606;-87.602;2022-07-04T07:48:37;44.00;37.50;24.00
49343;PMS5003;35210;41.606;-87.602;2022-07-04T07:51:05;52.00;42.25;27.75
49343;PMS5003;35210;41.606;-87.602;2022-07-04T07:53:35;47.50;40.50;26.25
49343;PMS5003;35210;41.606;-87.602;2022-07-04T07:56:03;48.75;39.50;25.75
49343;PMS5003;35210;41.606;-87.602;2022-07-04T07:58:32;48.00;40.75;27.00
49343;PMS5003;35210;41.606;-87.602;2022-07-04T08:01:00;40.25;32.50;19.75
49343;PMS5003;35210;41.606;-87.602;2022-07-04T08:03:28;48.25;40.00;27.00
49343;PMS5003;35210;41.606;-87.602;2022-07-04T08:06:15;46.75;37.50;25.00
49343;PMS5003;35210;41.606;-87.602;2022-07-04T08:08:45;47.00;39.50;26.00
49343;PMS5003;35210;41.606;-87.602;2022-07-04T08:11:13;39.25;35.00;22.00
49343;PMS5003;35210;41.606;-87.602;2022-07-04T08:13:41;39.75;33.75;24.25
49343;PMS5003;35210;41.606;-87.602;2022-07-04T08:16:09;45.75;37.25;25.00
49343;PMS5003;35210;41.606;-87.602;2022-07-04T08:18:37;38.00;33.25;25.25
49343;PMS5003;35210;41.606;-87.602;2022-07-04T08:21:05;40.00;33.75;22.50
49343;PMS5003;35210;41.606;-87.602;2022-07-04T08:23:33;44.50;37.75;24.25
49343;PMS5003;35210;41.606;-87.602;2022-07-04T08:26:03;41.00;34.50;22.00
49343;PMS5003;35210;41.606;-87.602;2022-07-04T08:28:31;40.25;34.75;23.50
49343;PMS5003;35210;41.606;-87.602;2022-07-04T08:30:59;45.25;34.50;23.50
49343;PMS5003;35210;41.606;-87.602;2022-07-04T08:33:29;41.50;35.00;22.50
49343;PMS5003;35210;41.606;-87.602;2022-07-04T08:35:57;38.25;34.50;22.75
49343;PMS5003;35210;41.606;-87.602;2022-07-04T08:38:25;30.25;30.25;19.50
49343;PMS5003;35210;41.606;-87.602;2022-07-04T08:40:54;35.00;30.00;23.50
49343;PMS5003;35210;41.606;-87.602;2022-07-04T08:43:26;42.50;35.00;21.75
49343;PMS5003;35210;41.606;-87.602;2022-07-04T08:45:54;40.00;33.75;23.00
49343;PMS5003;35210;41.606;-87.602;2022-07-04T08:48:25;32.50;31.50;21.75
49343;PMS5003;35210;41.606;-87.602;2022-07-04T08:50:54;40.25;34.00;23.00
49343;PMS5003;35210;41.606;-87.602;2022-07-04T08:53:28;32.75;31.75;22.25
49343;PMS5003;35210;41.606;-87.602;2022-07-04T08:55:57;23.25;17.50;14.50
49343;PMS5003;35210;41.606;-87.602;2022-07-04T08:58:46;29.75;28.00;21.75
49343;PMS5003;35210;41.606;-87.602;2022-07-04T09:01:15;40.50;35.50;24.50
49343;PMS5003;35210;41.606;-87.602;2022-07-04T09:03:44;29.75;29.75;21.00
49343;PMS5003;35210;41.606;-87.602;2022-07-04T09:06:13;34.50;33.75;22.00
49343;PMS5003;35210;41.606;-87.602;2022-07-04T09:08:41;34.50;32.75;21.00
49343;PMS5003;35210;41.606;-87.602;2022-07-04T09:11:09;33.50;30.00;21.50
49343;PMS5003;35210;41.606;-87.602;2022-07-04T09:13:37;31.40;26.20;17.00
49343;PMS5003;35210;41.606;-87.602;2022-07-04T09:16:07;32.80;29.60;19.80
49343;PMS5003;35210;41.606;-87.602;2022-07-04T09:18:35;27.40;24.60;16.40
49343;PMS5003;35210;41.606;-87.602;2022-07-04T09:21:04;30.20;29.20;19.80
49343;PMS5003;35210;41.606;-87.602;2022-07-04T09:23:34;28.80;27.00;19.00
49343;PMS5003;35210;41.606;-87.602;2022-07-04T09:26:07;30.60;27.00;18.40
49343;PMS5003;35210;41.606;-87.602;2022-07-04T09:28:41;26.80;25.00;15.80
49343;PMS5003;35210;41.606;-87.602;2022-07-04T09:31:18;26.80;24.20;18.00
49343;PMS5003;35210;41.606;-87.602;2022-07-04T09:33:49;30.80;26.80;18.60
49343;PMS5003;35210;41.606;-87.602;2022-07-04T09:36:20;26.20;24.20;15.80
49343;PMS5003;35210;41.606;-87.602;2022-07-04T09:39:03;29.60;27.00;18.60
49343;PMS5003;35210;41.606;-87.602;2022-07-04T09:41:49;28.20;26.00;18.40
49343;PMS5003;35210;41.606;-87.602;2022-07-04T09:44:21;26.60;25.00;17.00
49343;PMS5003;35210;41.606;-87.602;2022-07-04T09:46:51;26.80;25.00;16.60
49343;PMS5003;35210;41.606;-87.602;2022-07-04T09:49:20;25.60;25.40;18.60
49343;PMS5003;35210;41.606;-87.602;2022-07-04T09:51:48;20.60;20.20;14.60
49343;PMS5003;35210;41.606;-87.602;2022-07-04T09:54:19;24.40;24.40;18.20
49343;PMS5003;35210;41.606;-87.602;2022-07-04T09:56:51;21.80;19.20;13.60
49343;PMS5003;35210;41.606;-87.602;2022-07-04T09:59:20;22.00;20.40;16.00
49343;PMS5003;35210;41.606;-87.602;2022-07-04T10:01:49;27.00;25.00;17.00
49343;PMS5003;35210;41.606;-87.602;2022-07-04T10:04:19;25.60;21.40;15.60
49343;PMS5003;35210;41.606;-87.602;2022-07-04T10:06:50;21.80;20.80;15.60
49343;PMS5003;35210;41.606;-87.602;2022-07-04T10:09:19;22.60;19.60;15.80
49343;PMS5003;35210;41.606;-87.602;2022-07-04T10:11:47;27.40;26.60;17.60
49343;PMS5003;35210;41.606;-87.602;2022-07-04T10:14:15;27.40;23.60;16.60
49343;PMS5003;35210;41.606;-87.602;2022-07-04T10:16:43;28.60;24.60;16.60
49343;PMS5003;35210;41.606;-87.602;2022-07-04T10:19:12;30.80;24.40;16.40
49343;PMS5003;35210;41.606;-87.602;2022-07-04T10:21:42;19.00;17.80;12.40
49343;PMS5003;35210;41.606;-87.602;2022-07-04T10:24:12;24.40;22.20;15.20
49343;PMS5003;35210;41.606;-87.602;2022-07-04T10:26:40;30.00;25.40;17.60
49343;PMS5003;35210;41.606;-87.602;2022-07-04T10:29:10;27.20;23.20;14.00
49343;PMS5003;35210;41.606;-87.602;2022-07-04T10:31:39;19.80;18.80;14.00
49343;PMS5003;35210;41.606;-87.602;2022-07-04T10:34:09;24.80;22.60;14.60
49343;PMS5003;35210;41.606;-87.602;2022-07-04T10:36:37;21.80;21.40;13.20
49343;PMS5003;35210;41.606;-87.602;2022-07-04T10:39:06;23.60;23.60;17.00
49343;PMS5003;35210;41.606;-87.602;2022-07-04T10:41:34;23.60;23.00;16.20
49343;PMS5003;35210;41.606;-87.602;2022-07-04T10:44:23;28.20;25.60;16.00
49343;PMS5003;35210;41.606;-87.602;2022-07-04T10:46:51;25.00;24.00;15.60
49343;PMS5003;35210;41.606;-87.602;2022-07-04T10:49:26;21.00;21.00;15.00
49343;PMS5003;35210;41.606;-87.602;2022-07-04T10:52:07;23.80;22.60;16.20
49343;PMS5003;35210;41.606;-87.602;2022-07-04T10:54:40;26.00;24.00;15.20
49343;PMS5003;35210;41.606;-87.602;2022-07-04T10:57:11;23.40;23.40;16.40
49343;PMS5003;35210;41.606;-87.602;2022-07-04T10:59:41;19.60;19.60;15.00
49343;PMS5003;35210;41.606;-87.602;2022-07-04T11:02:24;30.00;27.00;18.00
49343;PMS5003;35210;41.606;-87.602;2022-07-04T11:04:56;23.60;21.60;15.00
49343;PMS5003;35210;41.606;-87.602;2022-07-04T11:10:27;20.60;19.80;15.60
49343;PMS5003;35210;41.606;-87.602;2022-07-04T11:13:06;20.20;19.40;12.20
49343;PMS5003;35210;41.606;-87.602;2022-07-04T11:18:38;26.80;22.80;15.80
49343;PMS5003;35210;41.606;-87.602;2022-07-04T11:21:17;21.40;18.40;11.20
49343;PMS5003;35210;41.606;-87.602;2022-07-04T11:23:51;23.00;22.40;16.20
49343;PMS5003;35210;41.606;-87.602;2022-07-04T11:26:22;18.40;18.40;11.20
49343;PMS5003;35210;41.606;-87.602;2022-07-04T11:28:51;26.00;25.80;17.40
49343;PMS5003;35210;41.606;-87.602;2022-07-04T11:31:20;34.50;31.00;21.25
49343;PMS5003;35210;41.606;-87.602;2022-07-04T11:33:48;32.20;29.80;19.60
49343;PMS5003;35210;41.606;-87.602;2022-07-04T11:36:22;28.80;28.00;19.80
49343;PMS5003;35210;41.606;-87.602;2022-07-04T11:38:51;23.00;22.00;16.00
49343;PMS5003;35210;41.606;-87.602;2022-07-04T11:41:23;22.20;22.20;16.00
49343;PMS5003;35210;41.606;-87.602;2022-07-04T11:44:07;21.20;21.20;14.80
49343;PMS5003;35210;41.606;-87.602;2022-07-04T11:47:06;26.20;23.20;15.40
49343;PMS5003;35210;41.606;-87.602;2022-07-04T11:49:36;26.20;23.60;14.20
49343;PMS5003;35210;41.606;-87.602;2022-07-04T11:52:10;22.60;22.60;13.60
49343;PMS5003;35210;41.606;-87.602;2022-07-04T11:54:40;24.40;23.40;15.80
49343;PMS5003;35210;41.606;-87.602;2022-07-04T11:57:14;23.80;23.60;16.00
49343;PMS5003;35210;41.606;-87.602;2022-07-04T11:59:51;26.40;25.20;16.20
49343;PMS5003;35210;41.606;-87.602;2022-07-04T12:02:23;19.80;18.40;13.80
49343;PMS5003;35210;41.606;-87.602;2022-07-04T12:04:52;19.60;18.00;14.00
49343;PMS5003;35210;41.606;-87.602;2022-07-04T12:07:22;23.80;22.20;15.00
49343;PMS5003;35210;41.606;-87.602;2022-07-04T12:09:51;23.00;21.60;14.80
49343;PMS5003;35210;41.606;-87.602;2022-07-04T12:12:22;21.60;18.80;13.60
49343;PMS5003;35210;41.606;-87.602;2022-07-04T12:15:01;19.00;18.40;10.00
49343;PMS5003;35210;41.606;-87.602;2022-07-04T12:17:34;22.60;21.80;14.20
49343;PMS5003;35210;41.606;-87.602;2022-07-04T12:20:10;21.60;20.20;12.20
49343;PMS5003;35210;41.606;-87.602;2022-07-04T12:22:40;22.60;21.80;13.60
49343;PMS5003;35210;41.606;-87.602;2022-07-04T12:25:19;20.20;19.60;14.80
49343;PMS5003;35210;41.606;-87.602;2022-07-04T12:27:54;21.20;19.80;14.80
49343;PMS5003;35210;41.606;-87.602;2022-07-04T12:30:23;20.80;20.20;14.80
49343;PMS5003;35210;41.606;-87.602;2022-07-04T12:32:53;20.00;19.60;13.20
49343;PMS5003;35210;41.606;-87.602;2022-07-04T12:35:38;22.80;21.40;15.60
49343;PMS5003;35210;41.606;-87.602;2022-07-04T12:38:16;21.60;19.40;14.00
49343;PMS5003;35210;41.606;-87.602;2022-07-04T12:40:52;16.60;15.40;11.20
49343;PMS5003;35210;41.606;-87.602;2022-07-04T12:43:25;19.00;17.00;11.20
49343;PMS5003;35210;41.606;-87.602;2022-07-04T12:46:11;21.00;21.00;16.00
49343;PMS5003;35210;41.606;-87.602;2022-07-04T12:48:42;23.60;22.60;15.00
49343;PMS5003;35210;41.606;-87.602;2022-07-04T12:51:10;22.00;20.40;13.80
49343;PMS5003;35210;41.606;-87.602;2022-07-04T12:53:41;21.00;21.00;13.80
49343;PMS5003;35210;41.606;-87.602;2022-07-04T12:58:58;22.40;21.60;14.80
49343;PMS5003;35210;41.606;-87.602;2022-07-04T13:01:27;22.20;20.00;13.40
49343;PMS5003;35210;41.606;-87.602;2022-07-04T13:03:57;21.20;21.20;15.40
49343;PMS5003;35210;41.606;-87.602;2022-07-04T13:06:26;19.80;19.00;14.00
49343;PMS5003;35210;41.606;-87.602;2022-07-04T13:08:55;21.80;20.60;13.40
49343;PMS5003;35210;41.606;-87.602;2022-07-04T13:11:23;26.60;23.20;15.20
49343;PMS5003;35210;41.606;-87.602;2022-07-04T13:14:10;21.20;20.20;14.60
49343;PMS5003;35210;41.606;-87.602;2022-07-04T13:16:38;18.60;18.40;14.00
49343;PMS5003;35210;41.606;-87.602;2022-07-04T13:19:06;23.80;22.00;14.80
49343;PMS5003;35210;41.606;-87.602;2022-07-04T13:21:35;23.80;20.80;13.60
49343;PMS5003;35210;41.606;-87.602;2022-07-04T13:24:03;23.40;22.40;16.80
49343;PMS5003;35210;41.606;-87.602;2022-07-04T13:26:32;24.80;24.20;17.00
49343;PMS5003;35210;41.606;-87.602;2022-07-04T13:28:59;23.80;23.80;16.80
49343;PMS5003;35210;41.606;-87.602;2022-07-04T13:31:29;19.80;19.40;10.00
49343;PMS5003;35210;41.606;-87.602;2022-07-04T13:33:57;21.00;21.00;12.80
49343;PMS5003;35210;41.606;-87.602;2022-07-04T13:36:25;21.20;21.00;14.80
49343;PMS5003;35210;41.606;-87.602;2022-07-04T13:38:53;24.20;23.20;15.40
49343;PMS5003;35210;41.606;-87.602;2022-07-04T13:41:21;19.80;19.80;14.20
49343;PMS5003;35210;41.606;-87.602;2022-07-04T13:43:49;23.60;21.60;14.40
49343;PMS5003;35210;41.606;-87.602;2022-07-04T13:46:17;21.20;19.60;14.80
49343;PMS5003;35210;41.606;-87.602;2022-07-04T13:48:47;20.60;19.20;14.40